sensor_id;sensor_type;location;lat;lon;timestamp;P1;durP1;ratioP1;P2;durP2;ratioP2
37483;SDS011;23337;52.212;9.926;2023-06-22T00:01:50;9.80;;;8.80;;
37483;SDS011;23337;52.212;9.926;2023-06-22T00:04:16;9.50;;;8.67;;
37483;SDS011;23337;52.212;9.926;2023-06-22T00:06:42;10.00;;;9.00;;
37483;SDS011;23337;52.212;9.926;2023-06-22T00:09:08;9.67;;;8.77;;
37483;SDS011;23337;52.212;9.926;2023-06-22T00:11:35;9.33;;;8.43;;
37483;SDS011;23337;52.212;9.926;2023-06-22T00:14:01;10.27;;;9.00;;
37483;SDS011;23337;52.212;9.926;2023-06-22T00:16:27;9.70;;;8.70;;
37483;SDS011;23337;52.212;9.926;2023-06-22T00:18:53;9.67;;;8.60;;
37483;SDS011;23337;52.212;9.926;2023-06-22T00:21:19;10.03;;;8.83;;
37483;SDS011;23337;52.212;9.926;2023-06-22T00:23:45;10.57;;;9.40;;
37483;SDS011;23337;52.212;9.926;2023-06-22T00:26:12;10.60;;;9.70;;
37483;SDS011;23337;52.212;9.926;2023-06-22T00:28:38;10.23;;;9.27;;
37483;SDS011;23337;52.212;9.926;2023-06-22T00:31:04;10.30;;;9.50;;
37483;SDS011;23337;52.212;9.926;2023-06-22T00:33:30;10.07;;;9.27;;
37483;SDS011;23337;52.212;9.926;2023-06-22T00:35:56;10.27;;;9.30;;
37483;SDS011;23337;52.212;9.926;2023-06-22T00:38:22;11.13;;;10.10;;
37483;SDS011;23337;52.212;9.926;2023-06-22T00:40:48;10.40;;;9.50;;
37483;SDS011;23337;52.212;9.926;2023-06-22T00:43:14;11.33;;;9.20;;
37483;SDS011;23337;52.212;9.926;2023-06-22T00:45:40;10.30;;;9.20;;
37483;SDS011;23337;52.212;9.926;2023-06-22T00:48:06;9.30;;;8.47;;
37483;SDS011;23337;52.212;9.926;2023-06-22T00:50:33;9.90;;;9.03;;
37483;SDS011;23337;52.212;9.926;2023-06-22T00:53:06;9.93;;;9.00;;
37483;SDS011;23337;52.212;9.926;2023-06-22T00:55:33;10.10;;;9.20;;
37483;SDS011;23337;52.212;9.926;2023-06-22T00:58:02;10.30;;;9.30;;
37483;SDS011;23337;52.212;9.926;2023-06-22T01:00:33;9.97;;;9.17;;
37483;SDS011;23337;52.212;9.926;2023-06-22T01:02:59;9.43;;;8.57;;
37483;SDS011;23337;52.212;9.926;2023-06-22T01:05:25;9.73;;;8.83;;
37483;SDS011;23337;52.212;9.926;2023-06-22T01:13:07;11.83;;;10.73;;
37483;SDS011;23337;52.212;9.926;2023-06-22T01:15:39;12.10;;;10.90;;
37483;SDS011;23337;52.212;9.926;2023-06-22T01:18:05;11.13;;;10.13;;
37483;SDS011;23337;52.212;9.926;2023-06-22T01:20:33;11.10;;;9.47;;
37483;SDS011;23337;52.212;9.926;2023-06-22T01:25:31;10.93;;;9.83;;
37483;SDS011;23337;52.212;9.926;2023-06-22T01:28:09;13.50;;;12.30;;
37483;SDS011;23337;52.212;9.926;2023-06-22T01:30:40;12.83;;;11.70;;
37483;SDS011;23337;52.212;9.926;2023-06-22T01:33:07;13.10;;;11.80;;
37483;SDS011;23337;52.212;9.926;2023-06-22T01:35:34;12.50;;;11.30;;
37483;SDS011;23337;52.212;9.926;2023-06-22T01:38:00;12.80;;;11.60;;
37483;SDS011;23337;52.212;9.926;2023-06-22T01:40:27;12.37;;;11.20;;
37483;SDS011;23337;52.212;9.926;2023-06-22T01:42:53;12.57;;;11.47;;
37483;SDS011;23337;52.212;9.926;2023-06-22T01:45:19;12.80;;;11.47;;
37483;SDS011;23337;52.212;9.926;2023-06-22T01:47:45;13.47;;;12.07;;
37483;SDS011;23337;52.212;9.926;2023-06-22T01:50:12;13.20;;;11.80;;
37483;SDS011;23337;52.212;9.926;2023-06-22T01:52:38;13.60;;;10.97;;
37483;SDS011;23337;52.212;9.926;2023-06-22T01:55:04;13.37;;;10.90;;
37483;SDS011;23337;52.212;9.926;2023-06-22T01:57:32;14.03;;;11.10;;
37483;SDS011;23337;52.212;9.926;2023-06-22T02:00:03;12.30;;;11.00;;
37483;SDS011;23337;52.212;9.926;2023-06-22T02:02:33;14.67;;;11.53;;
37483;SDS011;23337;52.212;9.926;2023-06-22T02:05:03;14.50;;;10.63;;
37483;SDS011;23337;52.212;9.926;2023-06-22T02:07:31;15.87;;;10.17;;
37483;SDS011;23337;52.212;9.926;2023-06-22T02:09:58;13.43;;;12.03;;
37483;SDS011;23337;52.212;9.926;2023-06-22T02:12:25;13.10;;;11.57;;
37483;SDS011;23337;52.212;9.926;2023-06-22T02:14:52;12.70;;;11.17;;
37483;SDS011;23337;52.212;9.926;2023-06-22T02:17:19;12.50;;;11.30;;
37483;SDS011;23337;52.212;9.926;2023-06-22T02:19:45;12.07;;;10.83;;
37483;SDS011;23337;52.212;9.926;2023-06-22T02:22:11;14.80;;;10.93;;
37483;SDS011;23337;52.212;9.926;2023-06-22T02:24:39;12.93;;;10.23;;
37483;SDS011;23337;52.212;9.926;2023-06-22T02:27:05;15.00;;;12.20;;
37483;SDS011;23337;52.212;9.926;2023-06-22T02:29:32;14.03;;;12.40;;
37483;SDS011;23337;52.212;9.926;2023-06-22T02:31:58;13.37;;;11.77;;
37483;SDS011;23337;52.212;9.926;2023-06-22T02:34:24;14.13;;;11.80;;
37483;SDS011;23337;52.212;9.926;2023-06-22T02:36:50;14.30;;;12.00;;
37483;SDS011;23337;52.212;9.926;2023-06-22T02:39:25;12.23;;;11.03;;
37483;SDS011;23337;52.212;9.926;2023-06-22T02:41:52;13.80;;;11.37;;
37483;SDS011;23337;52.212;9.926;2023-06-22T02:44:18;12.77;;;11.67;;
37483;SDS011;23337;52.212;9.926;2023-06-22T02:46:44;15.93;;;11.67;;
37483;SDS011;23337;52.212;9.926;2023-06-22T02:49:11;12.17;;;10.93;;
37483;SDS011;23337;52.212;9.926;2023-06-22T02:51:41;12.27;;;11.03;;
37483;SDS011;23337;52.212;9.926;2023-06-22T02:54:08;12.70;;;10.93;;
37483;SDS011;23337;52.212;9.926;2023-06-22T02:56:34;12.60;;;10.80;;
37483;SDS011;23337;52.212;9.926;2023-06-22T02:59:01;15.33;;;10.70;;
37483;SDS011;23337;52.212;9.926;2023-06-22T03:01:27;14.70;;;10.27;;
37483;SDS011;23337;52.212;9.926;2023-06-22T03:03:55;15.43;;;11.23;;
37483;SDS011;23337;52.212;9.926;2023-06-22T03:06:21;13.40;;;11.00;;
37483;SDS011;23337;52.212;9.926;2023-06-22T03:08:57;14.50;;;11.20;;
37483;SDS011;23337;52.212;9.926;2023-06-22T03:11:23;12.83;;;11.47;;
37483;SDS011;23337;52.212;9.926;2023-06-22T03:13:49;16.33;;;11.67;;
37483;SDS011;23337;52.212;9.926;2023-06-22T03:16:17;14.03;;;10.87;;
37483;SDS011;23337;52.212;9.926;2023-06-22T03:18:43;12.60;;;11.13;;
37483;SDS011;23337;52.212;9.926;2023-06-22T03:21:09;12.23;;;10.93;;
37483;SDS011;23337;52.212;9.926;2023-06-22T03:23:35;13.53;;;10.87;;
37483;SDS011;23337;52.212;9.926;2023-06-22T03:26:01;12.47;;;11.00;;
37483;SDS011;23337;52.212;9.926;2023-06-22T03:28:27;18.67;;;11.30;;
37483;SDS011;23337;52.212;9.926;2023-06-22T03:30:53;14.77;;;10.80;;
37483;SDS011;23337;52.212;9.926;2023-06-22T03:33:19;15.47;;;11.63;;
37483;SDS011;23337;52.212;9.926;2023-06-22T03:35:45;15.00;;;10.40;;
37483;SDS011;23337;52.212;9.926;2023-06-22T03:38:11;16.37;;;11.43;;
37483;SDS011;23337;52.212;9.926;2023-06-22T03:40:37;12.70;;;11.27;;
37483;SDS011;23337;52.212;9.926;2023-06-22T03:43:03;12.37;;;9.70;;
37483;SDS011;23337;52.212;9.926;2023-06-22T03:45:29;16.33;;;10.93;;
37483;SDS011;23337;52.212;9.926;2023-06-22T03:47:55;12.70;;;10.53;;
37483;SDS011;23337;52.212;9.926;2023-06-22T03:50:21;16.20;;;11.87;;
37483;SDS011;23337;52.212;9.926;2023-06-22T03:52:47;14.77;;;10.53;;
37483;SDS011;23337;52.212;9.926;2023-06-22T03:55:13;16.47;;;11.40;;
37483;SDS011;23337;52.212;9.926;2023-06-22T03:57:39;14.00;;;12.43;;
37483;SDS011;23337;52.212;9.926;2023-06-22T04:00:05;15.20;;;13.13;;
37483;SDS011;23337;52.212;9.926;2023-06-22T04:02:32;17.80;;;12.67;;
37483;SDS011;23337;52.212;9.926;2023-06-22T04:04:58;14.37;;;12.77;;
37483;SDS011;23337;52.212;9.926;2023-06-22T04:07:24;16.93;;;14.10;;
37483;SDS011;23337;52.212;9.926;2023-06-22T04:09:50;15.50;;;14.10;;
37483;SDS011;23337;52.212;9.926;2023-06-22T04:12:16;15.77;;;14.30;;
37483;SDS011;23337;52.212;9.926;2023-06-22T04:14:42;16.27;;;14.33;;
37483;SDS011;23337;52.212;9.926;2023-06-22T04:17:08;15.93;;;14.27;;
37483;SDS011;23337;52.212;9.926;2023-06-22T04:19:37;17.20;;;15.60;;
37483;SDS011;23337;52.212;9.926;2023-06-22T04:22:03;15.87;;;14.33;;
37483;SDS011;23337;52.212;9.926;2023-06-22T04:24:30;19.40;;;15.90;;
37483;SDS011;23337;52.212;9.926;2023-06-22T04:26:56;17.87;;;16.07;;
37483;SDS011;23337;52.212;9.926;2023-06-22T04:29:22;18.67;;;16.90;;
37483;SDS011;23337;52.212;9.926;2023-06-22T04:31:53;18.17;;;16.20;;
37483;SDS011;23337;52.212;9.926;2023-06-22T04:34:21;18.37;;;16.70;;
37483;SDS011;23337;52.212;9.926;2023-06-22T04:36:46;17.90;;;16.10;;
37483;SDS011;23337;52.212;9.926;2023-06-22T04:39:12;18.23;;;16.40;;
37483;SDS011;23337;52.212;9.926;2023-06-22T04:41:39;18.70;;;16.63;;
37483;SDS011;23337;52.212;9.926;2023-06-22T04:44:09;18.43;;;16.53;;
37483;SDS011;23337;52.212;9.926;2023-06-22T04:46:35;18.83;;;17.03;;
37483;SDS011;23337;52.212;9.926;2023-06-22T04:49:03;18.97;;;16.93;;
37483;SDS011;23337;52.212;9.926;2023-06-22T04:51:31;19.23;;;17.17;;
37483;SDS011;23337;52.212;9.926;2023-06-22T04:53:57;17.90;;;16.20;;
37483;SDS011;23337;52.212;9.926;2023-06-22T04:56:26;19.17;;;17.17;;
37483;SDS011;23337;52.212;9.926;2023-06-22T04:58:55;19.67;;;17.57;;
37483;SDS011;23337;52.212;9.926;2023-06-22T05:01:22;18.63;;;16.67;;
37483;SDS011;23337;52.212;9.926;2023-06-22T05:03:48;18.83;;;16.80;;
37483;SDS011;23337;52.212;9.926;2023-06-22T05:06:14;18.20;;;16.27;;
37483;SDS011;23337;52.212;9.926;2023-06-22T05:08:40;18.70;;;16.77;;
37483;SDS011;23337;52.212;9.926;2023-06-22T05:11:06;19.20;;;17.30;;
37483;SDS011;23337;52.212;9.926;2023-06-22T05:13:32;16.20;;;14.60;;
37483;SDS011;23337;52.212;9.926;2023-06-22T05:15:58;17.17;;;15.40;;
37483;SDS011;23337;52.212;9.926;2023-06-22T05:18:30;17.30;;;15.67;;
37483;SDS011;23337;52.212;9.926;2023-06-22T05:20:56;14.10;;;11.80;;
37483;SDS011;23337;52.212;9.926;2023-06-22T05:23:22;10.67;;;8.07;;
37483;SDS011;23337;52.212;9.926;2023-06-22T05:25:48;13.13;;;9.10;;
37483;SDS011;23337;52.212;9.926;2023-06-22T05:28:14;12.87;;;11.40;;
37483;SDS011;23337;52.212;9.926;2023-06-22T05:30:40;12.13;;;10.93;;
37483;SDS011;23337;52.212;9.926;2023-06-22T05:33:06;13.47;;;10.97;;
37483;SDS011;23337;52.212;9.926;2023-06-22T05:35:32;14.90;;;12.90;;
37483;SDS011;23337;52.212;9.926;2023-06-22T05:37:58;11.93;;;10.83;;
37483;SDS011;23337;52.212;9.926;2023-06-22T05:40:24;12.87;;;11.60;;
37483;SDS011;23337;52.212;9.926;2023-06-22T05:42:50;13.17;;;11.83;;
37483;SDS011;23337;52.212;9.926;2023-06-22T05:45:16;15.17;;;12.27;;
37483;SDS011;23337;52.212;9.926;2023-06-22T05:47:42;13.07;;;11.23;;
37483;SDS011;23337;52.212;9.926;2023-06-22T05:50:08;11.93;;;10.73;;
37483;SDS011;23337;52.212;9.926;2023-06-22T05:52:34;13.33;;;11.93;;
37483;SDS011;23337;52.212;9.926;2023-06-22T05:55:01;15.70;;;14.13;;
37483;SDS011;23337;52.212;9.926;2023-06-22T05:57:27;12.23;;;10.93;;
37483;SDS011;23337;52.212;9.926;2023-06-22T05:59:53;11.90;;;10.70;;
37483;SDS011;23337;52.212;9.926;2023-06-22T06:02:19;11.87;;;10.63;;
37483;SDS011;23337;52.212;9.926;2023-06-22T06:04:45;11.83;;;10.57;;
37483;SDS011;23337;52.212;9.926;2023-06-22T06:07:11;12.33;;;11.10;;
37483;SDS011;23337;52.212;9.926;2023-06-22T06:09:37;12.77;;;11.53;;
37483;SDS011;23337;52.212;9.926;2023-06-22T06:12:03;12.77;;;11.20;;
37483;SDS011;23337;52.212;9.926;2023-06-22T06:14:29;10.50;;;9.50;;
37483;SDS011;23337;52.212;9.926;2023-06-22T06:16:55;15.73;;;12.03;;
37483;SDS011;23337;52.212;9.926;2023-06-22T06:19:21;13.90;;;12.43;;
37483;SDS011;23337;52.212;9.926;2023-06-22T06:21:47;13.43;;;12.03;;
37483;SDS011;23337;52.212;9.926;2023-06-22T06:24:13;14.73;;;12.57;;
37483;SDS011;23337;52.212;9.926;2023-06-22T06:26:39;13.97;;;12.53;;
37483;SDS011;23337;52.212;9.926;2023-06-22T06:29:05;15.20;;;12.27;;
37483;SDS011;23337;52.212;9.926;2023-06-22T06:31:31;14.80;;;12.33;;
37483;SDS011;23337;52.212;9.926;2023-06-22T06:33:57;13.77;;;11.07;;
37483;SDS011;23337;52.212;9.926;2023-06-22T06:36:23;16.60;;;12.97;;
37483;SDS011;23337;52.212;9.926;2023-06-22T06:38:49;13.20;;;10.77;;
37483;SDS011;23337;52.212;9.926;2023-06-22T06:41:15;11.87;;;10.70;;
37483;SDS011;23337;52.212;9.926;2023-06-22T06:43:41;17.83;;;12.77;;
37483;SDS011;23337;52.212;9.926;2023-06-22T06:46:10;12.60;;;11.40;;
37483;SDS011;23337;52.212;9.926;2023-06-22T06:48:36;11.23;;;10.13;;
37483;SDS011;23337;52.212;9.926;2023-06-22T06:51:02;13.40;;;10.70;;
37483;SDS011;23337;52.212;9.926;2023-06-22T06:53:28;11.57;;;10.50;;
37483;SDS011;23337;52.212;9.926;2023-06-22T06:55:54;12.27;;;11.07;;
37483;SDS011;23337;52.212;9.926;2023-06-22T06:58:20;12.33;;;10.63;;
37483;SDS011;23337;52.212;9.926;2023-06-22T07:00:47;12.03;;;10.93;;
37483;SDS011;23337;52.212;9.926;2023-06-22T07:03:13;12.13;;;11.00;;
37483;SDS011;23337;52.212;9.926;2023-06-22T07:05:39;12.53;;;10.83;;
37483;SDS011;23337;52.212;9.926;2023-06-22T07:08:05;12.73;;;10.20;;
37483;SDS011;23337;52.212;9.926;2023-06-22T07:10:31;11.60;;;10.47;;
37483;SDS011;23337;52.212;9.926;2023-06-22T07:12:57;10.90;;;9.43;;
37483;SDS011;23337;52.212;9.926;2023-06-22T07:15:23;11.60;;;10.10;;
37483;SDS011;23337;52.212;9.926;2023-06-22T07:17:50;10.67;;;9.67;;
37483;SDS011;23337;52.212;9.926;2023-06-22T07:20:16;12.60;;;10.17;;
37483;SDS011;23337;52.212;9.926;2023-06-22T07:22:42;11.83;;;10.83;;
37483;SDS011;23337;52.212;9.926;2023-06-22T07:25:09;13.80;;;9.50;;
37483;SDS011;23337;52.212;9.926;2023-06-22T07:27:39;11.50;;;9.97;;
37483;SDS011;23337;52.212;9.926;2023-06-22T07:30:07;10.30;;;9.30;;
37483;SDS011;23337;52.212;9.926;2023-06-22T07:32:33;10.77;;;9.77;;
37483;SDS011;23337;52.212;9.926;2023-06-22T07:34:59;11.70;;;9.53;;
37483;SDS011;23337;52.212;9.926;2023-06-22T07:37:26;10.87;;;9.77;;
37483;SDS011;23337;52.212;9.926;2023-06-22T07:39:53;10.13;;;8.83;;
37483;SDS011;23337;52.212;9.926;2023-06-22T07:42:23;11.17;;;9.07;;
37483;SDS011;23337;52.212;9.926;2023-06-22T07:44:49;11.33;;;10.13;;
37483;SDS011;23337;52.212;9.926;2023-06-22T07:47:16;10.37;;;9.37;;
37483;SDS011;23337;52.212;9.926;2023-06-22T07:49:44;13.03;;;9.87;;
37483;SDS011;23337;52.212;9.926;2023-06-22T07:52:10;11.10;;;9.73;;
37483;SDS011;23337;52.212;9.926;2023-06-22T07:54:36;10.03;;;9.13;;
37483;SDS011;23337;52.212;9.926;2023-06-22T07:57:02;9.57;;;8.60;;
37483;SDS011;23337;52.212;9.926;2023-06-22T07:59:28;10.57;;;9.30;;
37483;SDS011;23337;52.212;9.926;2023-06-22T08:01:54;11.10;;;9.97;;
37483;SDS011;23337;52.212;9.926;2023-06-22T08:04:20;8.70;;;7.90;;
37483;SDS011;23337;52.212;9.926;2023-06-22T08:06:46;9.60;;;8.60;;
37483;SDS011;23337;52.212;9.926;2023-06-22T08:09:12;10.03;;;9.03;;
37483;SDS011;23337;52.212;9.926;2023-06-22T08:11:38;12.73;;;10.80;;
37483;SDS011;23337;52.212;9.926;2023-06-22T08:14:04;11.27;;;10.17;;
37483;SDS011;23337;52.212;9.926;2023-06-22T08:16:30;11.20;;;10.20;;
37483;SDS011;23337;52.212;9.926;2023-06-22T08:18:56;11.87;;;9.50;;
37483;SDS011;23337;52.212;9.926;2023-06-22T08:21:22;10.10;;;8.97;;
37483;SDS011;23337;52.212;9.926;2023-06-22T08:23:48;9.83;;;8.83;;
37483;SDS011;23337;52.212;9.926;2023-06-22T08:26:14;9.70;;;8.70;;
37483;SDS011;23337;52.212;9.926;2023-06-22T08:28:40;11.20;;;9.27;;
37483;SDS011;23337;52.212;9.926;2023-06-22T08:31:06;10.97;;;9.87;;
37483;SDS011;23337;52.212;9.926;2023-06-22T08:33:33;9.77;;;8.93;;
37483;SDS011;23337;52.212;9.926;2023-06-22T08:35:59;9.77;;;8.87;;
37483;SDS011;23337;52.212;9.926;2023-06-22T08:38:25;10.40;;;9.40;;
37483;SDS011;23337;52.212;9.926;2023-06-22T08:40:51;9.70;;;8.70;;
37483;SDS011;23337;52.212;9.926;2023-06-22T08:43:17;11.90;;;8.47;;
37483;SDS011;23337;52.212;9.926;2023-06-22T08:45:43;10.77;;;9.17;;
37483;SDS011;23337;52.212;9.926;2023-06-22T08:48:09;9.27;;;8.43;;
37483;SDS011;23337;52.212;9.926;2023-06-22T08:50:35;10.07;;;9.17;;
37483;SDS011;23337;52.212;9.926;2023-06-22T08:53:01;13.20;;;10.43;;
37483;SDS011;23337;52.212;9.926;2023-06-22T08:55:27;9.83;;;8.83;;
37483;SDS011;23337;52.212;9.926;2023-06-22T08:57:53;11.23;;;10.13;;
37483;SDS011;23337;52.212;9.926;2023-06-22T09:00:19;13.53;;;10.07;;
37483;SDS011;23337;52.212;9.926;2023-06-22T09:02:46;10.63;;;9.63;;
37483;SDS011;23337;52.212;9.926;2023-06-22T09:05:13;11.73;;;10.63;;
37483;SDS011;23337;52.212;9.926;2023-06-22T09:07:39;13.10;;;10.13;;
37483;SDS011;23337;52.212;9.926;2023-06-22T09:10:05;10.93;;;9.63;;
37483;SDS011;23337;52.212;9.926;2023-06-22T09:12:31;11.33;;;9.17;;
37483;SDS011;23337;52.212;9.926;2023-06-22T09:15:01;9.80;;;8.70;;
37483;SDS011;23337;52.212;9.926;2023-06-22T09:17:27;13.50;;;10.67;;
37483;SDS011;23337;52.212;9.926;2023-06-22T09:19:53;12.53;;;10.80;;
37483;SDS011;23337;52.212;9.926;2023-06-22T09:22:19;10.70;;;9.60;;
37483;SDS011;23337;52.212;9.926;2023-06-22T09:24:45;11.47;;;10.40;;
37483;SDS011;23337;52.212;9.926;2023-06-22T09:27:11;13.63;;;12.03;;
37483;SDS011;23337;52.212;9.926;2023-06-22T09:29:38;11.07;;;9.63;;
37483;SDS011;23337;52.212;9.926;2023-06-22T09:32:05;13.17;;;10.30;;
37483;SDS011;23337;52.212;9.926;2023-06-22T09:34:31;13.80;;;12.00;;
37483;SDS011;23337;52.212;9.926;2023-06-22T09:36:57;13.03;;;11.83;;
37483;SDS011;23337;52.212;9.926;2023-06-22T09:39:25;17.00;;;13.13;;
37483;SDS011;23337;52.212;9.926;2023-06-22T09:41:51;15.23;;;11.83;;
37483;SDS011;23337;52.212;9.926;2023-06-22T09:44:17;13.20;;;11.67;;
37483;SDS011;23337;52.212;9.926;2023-06-22T09:46:43;14.10;;;12.80;;
37483;SDS011;23337;52.212;9.926;2023-06-22T09:49:09;14.17;;;12.73;;
37483;SDS011;23337;52.212;9.926;2023-06-22T09:51:35;14.97;;;13.50;;
37483;SDS011;23337;52.212;9.926;2023-06-22T09:54:01;13.37;;;12.07;;
37483;SDS011;23337;52.212;9.926;2023-06-22T09:56:27;13.40;;;12.07;;
37483;SDS011;23337;52.212;9.926;2023-06-22T09:58:54;16.30;;;11.80;;
37483;SDS011;23337;52.212;9.926;2023-06-22T10:01:20;13.43;;;12.20;;
37483;SDS011;23337;52.212;9.926;2023-06-22T10:03:47;14.17;;;12.77;;
37483;SDS011;23337;52.212;9.926;2023-06-22T10:06:13;15.20;;;13.80;;
37483;SDS011;23337;52.212;9.926;2023-06-22T10:08:40;14.53;;;13.23;;
37483;SDS011;23337;52.212;9.926;2023-06-22T10:11:06;17.47;;;15.67;;
37483;SDS011;23337;52.212;9.926;2023-06-22T10:13:32;15.63;;;13.87;;
37483;SDS011;23337;52.212;9.926;2023-06-22T10:15:58;16.57;;;15.07;;
37483;SDS011;23337;52.212;9.926;2023-06-22T10:18:24;17.50;;;15.90;;
37483;SDS011;23337;52.212;9.926;2023-06-22T10:20:50;18.07;;;16.27;;
37483;SDS011;23337;52.212;9.926;2023-06-22T10:23:17;16.67;;;15.07;;
37483;SDS011;23337;52.212;9.926;2023-06-22T10:25:43;15.93;;;14.50;;
37483;SDS011;23337;52.212;9.926;2023-06-22T10:28:08;17.00;;;15.30;;
37483;SDS011;23337;52.212;9.926;2023-06-22T10:30:34;17.57;;;15.77;;
37483;SDS011;23337;52.212;9.926;2023-06-22T10:33:00;19.07;;;17.17;;
37483;SDS011;23337;52.212;9.926;2023-06-22T10:35:26;17.47;;;15.20;;
37483;SDS011;23337;52.212;9.926;2023-06-22T10:37:52;15.43;;;13.97;;
37483;SDS011;23337;52.212;9.926;2023-06-22T10:40:19;16.87;;;14.47;;
37483;SDS011;23337;52.212;9.926;2023-06-22T10:42:45;16.53;;;14.93;;
37483;SDS011;23337;52.212;9.926;2023-06-22T10:45:11;15.73;;;14.33;;
37483;SDS011;23337;52.212;9.926;2023-06-22T10:47:38;18.63;;;16.90;;
37483;SDS011;23337;52.212;9.926;2023-06-22T10:50:07;18.23;;;16.53;;
37483;SDS011;23337;52.212;9.926;2023-06-22T10:52:33;16.57;;;14.90;;
37483;SDS011;23337;52.212;9.926;2023-06-22T10:54:59;16.77;;;15.27;;
37483;SDS011;23337;52.212;9.926;2023-06-22T10:57:25;16.57;;;15.07;;
37483;SDS011;23337;52.212;9.926;2023-06-22T10:59:51;16.93;;;13.93;;
37483;SDS011;23337;52.212;9.926;2023-06-22T11:02:17;15.40;;;14.00;;
37483;SDS011;23337;52.212;9.926;2023-06-22T11:04:43;16.43;;;15.00;;
37483;SDS011;23337;52.212;9.926;2023-06-22T11:07:09;18.33;;;16.53;;
37483;SDS011;23337;52.212;9.926;2023-06-22T11:09:35;19.17;;;17.40;;
37483;SDS011;23337;52.212;9.926;2023-06-22T11:12:01;18.40;;;16.50;;
37483;SDS011;23337;52.212;9.926;2023-06-22T11:14:27;16.93;;;15.50;;
37483;SDS011;23337;52.212;9.926;2023-06-22T11:16:53;15.03;;;13.67;;
37483;SDS011;23337;52.212;9.926;2023-06-22T11:19:19;19.83;;;14.40;;
37483;SDS011;23337;52.212;9.926;2023-06-22T11:21:45;15.00;;;13.53;;
37483;SDS011;23337;52.212;9.926;2023-06-22T11:24:11;15.73;;;14.27;;
37483;SDS011;23337;52.212;9.926;2023-06-22T11:26:37;16.03;;;14.53;;
37483;SDS011;23337;52.212;9.926;2023-06-22T11:29:03;17.60;;;16.00;;
37483;SDS011;23337;52.212;9.926;2023-06-22T11:31:30;18.47;;;16.83;;
37483;SDS011;23337;52.212;9.926;2023-06-22T11:33:57;17.10;;;14.13;;
37483;SDS011;23337;52.212;9.926;2023-06-22T11:36:23;17.00;;;15.50;;
37483;SDS011;23337;52.212;9.926;2023-06-22T11:38:49;15.33;;;13.93;;
37483;SDS011;23337;52.212;9.926;2023-06-22T11:41:15;15.83;;;14.40;;
37483;SDS011;23337;52.212;9.926;2023-06-22T11:43:41;16.90;;;15.52;;
37483;SDS011;23337;52.212;9.926;2023-06-22T11:46:06;15.53;;;14.13;;
37483;SDS011;23337;52.212;9.926;2023-06-22T11:48:33;15.55;;;14.02;;
37483;SDS011;23337;52.212;9.926;2023-06-22T11:50:59;15.77;;;14.47;;
37483;SDS011;23337;52.212;9.926;2023-06-22T11:53:26;16.17;;;14.67;;
37483;SDS011;23337;52.212;9.926;2023-06-22T11:55:52;15.23;;;13.83;;
37483;SDS011;23337;52.212;9.926;2023-06-22T11:58:19;13.55;;;12.25;;
37483;SDS011;23337;52.212;9.926;2023-06-22T12:00:45;14.98;;;13.70;;
37483;SDS011;23337;52.212;9.926;2023-06-22T12:03:11;14.13;;;12.98;;
37483;SDS011;23337;52.212;9.926;2023-06-22T12:05:37;13.57;;;12.27;;
37483;SDS011;23337;52.212;9.926;2023-06-22T12:08:03;13.18;;;11.88;;
37483;SDS011;23337;52.212;9.926;2023-06-22T12:10:30;13.65;;;12.32;;
37483;SDS011;23337;52.212;9.926;2023-06-22T12:12:56;13.32;;;12.20;;
37483;SDS011;23337;52.212;9.926;2023-06-22T12:15:25;12.27;;;11.30;;
37483;SDS011;23337;52.212;9.926;2023-06-22T12:17:51;12.75;;;11.73;;
37483;SDS011;23337;52.212;9.926;2023-06-22T12:20:17;12.80;;;11.52;;
37483;SDS011;23337;52.212;9.926;2023-06-22T12:22:44;13.73;;;12.43;;
37483;SDS011;23337;52.212;9.926;2023-06-22T12:25:10;12.90;;;11.60;;
37483;SDS011;23337;52.212;9.926;2023-06-22T12:27:36;12.68;;;11.40;;
37483;SDS011;23337;52.212;9.926;2023-06-22T12:30:03;13.13;;;11.93;;
37483;SDS011;23337;52.212;9.926;2023-06-22T12:32:29;13.48;;;12.35;;
37483;SDS011;23337;52.212;9.926;2023-06-22T12:34:55;12.80;;;11.63;;
37483;SDS011;23337;52.212;9.926;2023-06-22T12:37:21;12.45;;;11.35;;
37483;SDS011;23337;52.212;9.926;2023-06-22T12:39:47;12.48;;;11.48;;
37483;SDS011;23337;52.212;9.926;2023-06-22T12:42:13;14.63;;;13.43;;
37483;SDS011;23337;52.212;9.926;2023-06-22T12:44:39;13.15;;;12.15;;
37483;SDS011;23337;52.212;9.926;2023-06-22T12:47:06;14.18;;;12.80;;
37483;SDS011;23337;52.212;9.926;2023-06-22T12:49:33;14.32;;;13.05;;
37483;SDS011;23337;52.212;9.926;2023-06-22T12:51:59;12.43;;;11.27;;
37483;SDS011;23337;52.212;9.926;2023-06-22T12:54:25;12.75;;;11.75;;
37483;SDS011;23337;52.212;9.926;2023-06-22T12:56:51;13.02;;;11.90;;
37483;SDS011;23337;52.212;9.926;2023-06-22T12:59:17;11.50;;;10.52;;
37483;SDS011;23337;52.212;9.926;2023-06-22T13:01:43;13.07;;;11.90;;
37483;SDS011;23337;52.212;9.926;2023-06-22T13:04:10;11.45;;;10.55;;
37483;SDS011;23337;52.212;9.926;2023-06-22T13:06:39;11.02;;;10.13;;
37483;SDS011;23337;52.212;9.926;2023-06-22T13:09:05;11.07;;;10.10;;
37483;SDS011;23337;52.212;9.926;2023-06-22T13:11:31;11.35;;;10.43;;
37483;SDS011;23337;52.212;9.926;2023-06-22T13:13:57;10.80;;;10.00;;
37483;SDS011;23337;52.212;9.926;2023-06-22T13:16:23;10.15;;;9.35;;
37483;SDS011;23337;52.212;9.926;2023-06-22T13:18:49;10.63;;;9.82;;
37483;SDS011;23337;52.212;9.926;2023-06-22T13:21:15;11.40;;;10.50;;
37483;SDS011;23337;52.212;9.926;2023-06-22T13:23:41;11.40;;;10.57;;
37483;SDS011;23337;52.212;9.926;2023-06-22T13:26:07;10.35;;;9.55;;
37483;SDS011;23337;52.212;9.926;2023-06-22T13:28:33;10.45;;;9.65;;
37483;SDS011;23337;52.212;9.926;2023-06-22T13:30:59;9.98;;;9.20;;
37483;SDS011;23337;52.212;9.926;2023-06-22T13:33:25;10.00;;;9.10;;
37483;SDS011;23337;52.212;9.926;2023-06-22T13:35:51;10.35;;;9.48;;
37483;SDS011;23337;52.212;9.926;2023-06-22T13:38:17;9.63;;;8.88;;
37483;SDS011;23337;52.212;9.926;2023-06-22T13:40:43;9.35;;;8.63;;
37483;SDS011;23337;52.212;9.926;2023-06-22T13:43:09;9.95;;;9.10;;
37483;SDS011;23337;52.212;9.926;2023-06-22T13:45:35;10.23;;;9.27;;
37483;SDS011;23337;52.212;9.926;2023-06-22T13:48:01;9.30;;;8.45;;
37483;SDS011;23337;52.212;9.926;2023-06-22T13:50:27;9.90;;;9.00;;
37483;SDS011;23337;52.212;9.926;2023-06-22T13:52:54;9.93;;;9.13;;
37483;SDS011;23337;52.212;9.926;2023-06-22T13:55:21;9.65;;;8.85;;
37483;SDS011;23337;52.212;9.926;2023-06-22T13:57:48;10.60;;;9.55;;
37483;SDS011;23337;52.212;9.926;2023-06-22T14:00:14;10.25;;;9.45;;
37483;SDS011;23337;52.212;9.926;2023-06-22T14:02:40;10.18;;;9.35;;
37483;SDS011;23337;52.212;9.926;2023-06-22T14:05:07;10.50;;;9.40;;
37483;SDS011;23337;52.212;9.926;2023-06-22T14:07:33;9.50;;;8.65;;
37483;SDS011;23337;52.212;9.926;2023-06-22T14:09:59;10.90;;;10.02;;
37483;SDS011;23337;52.212;9.926;2023-06-22T14:12:25;10.93;;;10.02;;
37483;SDS011;23337;52.212;9.926;2023-06-22T14:14:51;12.07;;;11.15;;
37483;SDS011;23337;52.212;9.926;2023-06-22T14:17:17;10.35;;;9.45;;
37483;SDS011;23337;52.212;9.926;2023-06-22T14:19:48;10.15;;;9.35;;
37483;SDS011;23337;52.212;9.926;2023-06-22T14:22:14;10.43;;;9.53;;
37483;SDS011;23337;52.212;9.926;2023-06-22T14:24:40;11.10;;;10.20;;
37483;SDS011;23337;52.212;9.926;2023-06-22T14:27:06;11.02;;;10.10;;
37483;SDS011;23337;52.212;9.926;2023-06-22T14:29:33;11.75;;;10.75;;